Time;durP1;ratioP1;P1;durP2;ratioP2;P2;SDS_P1;SDS_P2;PMS_P1;PMS_P2;Temp;Humidity;BMP_temperature;BMP_pressure;BME280_temperature;BME280_humidity;BME280_pressure;Samples;Min_cycle;Max_cycle;Signal;HPM_P1;HPM_P2
2022/01/07 00:01:26;;;;;;;19.30;4.20;;;2.60;85.40;;;;;;5163485;27;20040;-79
2022/01/07 00:03:53;;;;;;;16.60;4.57;;;2.60;83.80;;;;;;5166390;27;20028;-77
2022/01/07 00:06:20;;;;;;;16.45;4.85;;;2.60;86.00;;;;;;5165471;27;20032;-78
2022/01/07 00:08:47;;;;;;;13.57;4.40;;;2.60;84.30;;;;;;5164700;27;20047;-79
2022/01/07 00:11:14;;;;;;;15.25;5.00;;;2.50;85.90;;;;;;5164701;27;20059;-77
2022/01/07 00:13:43;;;;;;;18.45;5.13;;;2.50;86.30;;;;;;5165461;27;20078;-77
2022/01/07 00:16:11;;;;;;;16.05;4.93;;;2.50;86.60;;;;;;5164776;27;20048;-80
2022/01/07 00:18:41;;;;;;;14.27;4.15;;;2.40;86.00;;;;;;5163529;27;20039;-79
2022/01/07 00:21:08;;;;;;;15.77;5.63;;;2.50;86.50;;;;;;5160349;27;20051;-78
2022/01/07 00:23:35;;;;;;;20.35;5.30;;;2.40;86.90;;;;;;5160318;27;20071;-79
2022/01/07 00:26:02;;;;;;;17.00;4.75;;;2.40;87.70;;;;;;5160647;27;20099;-79
2022/01/07 00:28:28;;;;;;;14.93;4.95;;;2.40;88.00;;;;;;5161070;27;20068;-79
2022/01/07 00:30:55;;;;;;;16.30;5.20;;;2.30;88.20;;;;;;5163006;27;20035;-78
2022/01/07 00:33:22;;;;;;;15.13;4.95;;;2.30;88.80;;;;;;5164339;27;20039;-79
2022/01/07 00:35:49;;;;;;;14.25;4.88;;;2.30;89.20;;;;;;5163749;27;20100;-79
2022/01/07 00:38:18;;;;;;;14.02;5.40;;;2.20;89.70;;;;;;5162816;27;20043;-78
2022/01/07 00:40:47;;;;;;;19.63;5.32;;;2.20;89.40;;;;;;5164442;27;20070;-77
2022/01/07 00:43:14;;;;;;;18.27;5.32;;;2.20;90.40;;;;;;5161953;27;20103;-78
2022/01/07 00:45:44;;;;;;;14.10;5.40;;;2.20;90.70;;;;;;5162925;27;20046;-79
2022/01/07 00:48:11;;;;;;;14.55;5.53;;;2.20;90.90;;;;;;5163410;27;20505;-79
2022/01/07 00:50:38;;;;;;;13.13;4.70;;;2.10;90.90;;;;;;5166528;27;20040;-79
2022/01/07 00:53:05;;;;;;;14.68;5.00;;;2.10;91.10;;;;;;5165491;27;20106;-79
2022/01/07 00:55:32;;;;;;;19.60;5.00;;;2.10;91.30;;;;;;5165927;27;20127;-79
2022/01/07 00:57:58;;;;;;;13.77;5.07;;;2.10;91.60;;;;;;5164011;27;20066;-79
2022/01/07 01:00:26;;;;;;;16.77;5.20;;;2.10;91.50;;;;;;5163025;27;20067;-79
2022/01/07 01:02:55;;;;;;;15.68;5.10;;;2.10;91.50;;;;;;5164581;27;20035;-79
2022/01/07 01:05:23;;;;;;;16.25;4.85;;;2.10;91.60;;;;;;5164017;27;21761;-78
2022/01/07 01:07:53;;;;;;;15.63;4.60;;;2.10;90.60;;;;;;5162022;27;20035;-79
2022/01/07 01:10:24;;;;;;;19.20;5.53;;;2.10;91.00;;;;;;5163268;27;20113;-79
2022/01/07 01:12:53;;;;;;;15.93;5.22;;;2.10;91.40;;;;;;5164686;27;20107;-78
2022/01/07 01:15:22;;;;;;;14.80;4.85;;;2.10;91.50;;;;;;5162281;27;21722;-79
2022/01/07 01:17:53;;;;;;;15.88;4.60;;;2.20;91.40;;;;;;5163995;27;20087;-79
2022/01/07 01:20:20;;;;;;;18.85;4.78;;;2.10;90.60;;;;;;5164025;27;20130;-80
2022/01/07 01:22:48;;;;;;;11.93;4.30;;;2.20;90.30;;;;;;5163654;27;20040;-78
2022/01/07 01:25:15;;;;;;;13.40;5.03;;;2.10;90.70;;;;;;5166834;27;20035;-78
2022/01/07 01:27:42;;;;;;;11.25;4.50;;;2.10;90.50;;;;;;5162191;27;20114;-79
2022/01/07 01:30:11;;;;;;;12.43;4.30;;;2.10;90.40;;;;;;5162810;27;20043;-79
2022/01/07 01:32:39;;;;;;;16.75;4.78;;;2.20;89.90;;;;;;5164536;27;20048;-78
2022/01/07 01:35:07;;;;;;;14.93;4.88;;;2.10;89.60;;;;;;5163777;27;20091;-79
2022/01/07 01:37:33;;;;;;;15.88;5.50;;;2.20;90.20;;;;;;5164085;27;20035;-78
2022/01/07 01:40:00;;;;;;;12.57;4.70;;;2.10;90.10;;;;;;5162483;27;20099;-78
2022/01/07 01:42:27;;;;;;;15.90;4.20;;;2.10;90.70;;;;;;5165979;27;20049;-80
2022/01/07 01:44:54;;;;;;;18.17;5.25;;;2.10;90.80;;;;;;5166623;27;20095;-79
2022/01/07 01:47:20;;;;;;;13.52;4.72;;;2.10;90.70;;;;;;5165087;27;20106;-80
2022/01/07 01:49:52;;;;;;;16.40;4.68;;;2.10;91.00;;;;;;5162520;27;20112;-78
2022/01/07 01:52:19;;;;;;;16.52;5.18;;;2.10;91.20;;;;;;5161583;27;20031;-79
2022/01/07 01:54:46;;;;;;;17.05;5.07;;;2.10;91.90;;;;;;5164042;27;20087;-78
2022/01/07 01:57:13;;;;;;;13.85;5.20;;;2.10;92.00;;;;;;5163457;27;20153;-79
2022/01/07 01:59:42;;;;;;;10.50;4.47;;;2.10;92.00;;;;;;5162077;27;20044;-78
2022/01/07 02:02:08;;;;;;;13.38;5.07;;;2.10;92.30;;;;;;5161680;27;20045;-78
2022/01/07 02:04:38;;;;;;;18.70;5.47;;;2.10;92.40;;;;;;5160252;27;20039;-79
2022/01/07 02:07:11;;;;;;;19.90;5.53;;;2.10;92.50;;;;;;5163527;27;20155;-78
2022/01/07 02:09:38;;;;;;;19.52;5.63;;;2.10;92.70;;;;;;5165532;27;20146;-78
2022/01/07 02:12:08;;;;;;;17.92;5.32;;;2.10;93.00;;;;;;5162131;27;20043;-78
2022/01/07 02:14:35;;;;;;;19.52;5.10;;;2.00;93.10;;;;;;5163221;27;20059;-79
2022/01/07 02:17:06;;;;;;;15.50;5.63;;;2.00;93.30;;;;;;5162873;27;20100;-78
2022/01/07 02:19:37;;;;;;;11.70;5.30;;;2.00;93.10;;;;;;5162263;27;20098;-78
2022/01/07 02:22:05;;;;;;;14.48;5.00;;;2.00;93.30;;;;;;5163310;27;21100;-79
2022/01/07 02:24:34;;;;;;;13.85;5.20;;;2.00;93.40;;;;;;5163013;27;20067;-79
2022/01/07 02:27:07;;;;;;;16.23;5.45;;;2.00;93.70;;;;;;5161080;27;20074;-79
2022/01/07 02:29:33;;;;;;;17.60;5.60;;;2.00;93.40;;;;;;5163389;27;20058;-80
2022/01/07 02:32:01;;;;;;;13.35;5.40;;;2.00;93.60;;;;;;5161957;27;20061;-79
2022/01/07 02:34:28;;;;;;;13.80;5.30;;;2.00;93.90;;;;;;5162376;27;20036;-79
2022/01/07 02:36:56;;;;;;;15.88;5.15;;;2.00;93.90;;;;;;5162694;27;20057;-78
2022/01/07 02:39:23;;;;;;;20.67;5.63;;;2.00;93.80;;;;;;5162344;27;20023;-78
2022/01/07 02:41:49;;;;;;;18.65;4.97;;;2.00;93.80;;;;;;5163759;27;20043;-79
2022/01/07 02:44:16;;;;;;;16.52;5.43;;;2.00;93.90;;;;;;5163248;27;20032;-79
2022/01/07 02:46:45;;;;;;;14.43;5.07;;;2.00;93.80;;;;;;5163589;27;20108;-78
2022/01/07 02:49:13;;;;;;;15.05;5.50;;;2.00;93.90;;;;;;5166629;27;20054;-80
2022/01/07 02:51:42;;;;;;;13.80;5.20;;;2.10;94.10;;;;;;5165106;27;20086;-79
2022/01/07 02:54:09;;;;;;;14.85;5.35;;;2.00;94.10;;;;;;5166669;27;20039;-80
2022/01/07 02:56:36;;;;;;;15.35;5.32;;;2.00;94.10;;;;;;5166539;27;20040;-79
2022/01/07 02:59:08;;;;;;;15.68;4.78;;;2.00;94.10;;;;;;5166175;27;20059;-80
2022/01/07 03:01:38;;;;;;;16.77;5.45;;;2.00;94.10;;;;;;5164528;27;20090;-79
2022/01/07 03:04:06;;;;;;;15.57;5.13;;;2.00;94.10;;;;;;5162893;27;20149;-78
2022/01/07 03:06:33;;;;;;;11.50;5.28;;;1.90;94.00;;;;;;5162704;27;20106;-79
2022/01/07 03:09:00;;;;;;;16.85;5.55;;;2.00;94.00;;;;;;5161693;27;20043;-79
2022/01/07 03:11:27;;;;;;;13.30;5.10;;;2.00;94.20;;;;;;5163186;27;20047;-81
2022/01/07 03:13:54;;;;;;;14.10;5.80;;;2.00;94.40;;;;;;5159307;27;20108;-79
2022/01/07 03:16:24;;;;;;;15.18;5.78;;;2.00;94.50;;;;;;5157531;27;20054;-79
2022/01/07 03:18:51;;;;;;;15.02;5.68;;;2.00;94.70;;;;;;5154805;27;20039;-78
2022/01/07 03:21:17;;;;;;;17.83;6.32;;;2.00;94.80;;;;;;5154800;27;20047;-79
2022/01/07 03:23:45;;;;;;;13.60;5.78;;;2.00;94.80;;;;;;5156742;27;20032;-79
2022/01/07 03:26:14;;;;;;;16.40;5.68;;;2.00;94.80;;;;;;5152749;27;20049;-79
2022/01/07 03:28:41;;;;;;;14.35;6.28;;;2.00;94.60;;;;;;5149528;27;20073;-78
2022/01/07 03:31:08;;;;;;;17.17;6.25;;;2.10;94.90;;;;;;5149884;27;20043;-79
2022/01/07 03:33:38;;;;;;;13.50;7.20;;;2.10;95.00;;;;;;5148057;27;20143;-79
2022/01/07 03:36:08;;;;;;;22.75;6.80;;;2.10;95.30;;;;;;5148196;27;20048;-79
2022/01/07 03:38:38;;;;;;;16.75;6.70;;;2.10;95.40;;;;;;5151751;27;20050;-79
2022/01/07 03:41:08;;;;;;;15.38;6.35;;;2.10;95.40;;;;;;5148702;27;20652;-78
2022/01/07 03:43:37;;;;;;;15.10;6.53;;;2.10;95.40;;;;;;5148485;27;20492;-79
2022/01/07 03:46:04;;;;;;;19.77;6.65;;;2.10;95.30;;;;;;5141349;27;20054;-79
2022/01/07 03:48:30;;;;;;;15.10;6.05;;;2.20;95.20;;;;;;5144472;27;20074;-79
2022/01/07 03:50:57;;;;;;;14.77;6.90;;;2.20;95.30;;;;;;5142664;27;20051;-78
2022/01/07 03:53:27;;;;;;;11.68;6.45;;;2.20;95.40;;;;;;5143732;27;20063;-79
2022/01/07 03:55:54;;;;;;;14.85;6.22;;;2.10;95.10;;;;;;5141531;27;20096;-80
2022/01/07 03:58:20;;;;;;;13.65;6.65;;;2.10;95.00;;;;;;5141991;27;20869;-79
2022/01/07 04:00:47;;;;;;;16.25;6.85;;;2.10;95.10;;;;;;5139333;27;20860;-79
2022/01/07 04:03:17;;;;;;;11.23;6.78;;;2.10;95.20;;;;;;5140711;27;20837;-79
2022/01/07 04:05:44;;;;;;;12.10;6.63;;;2.00;95.30;;;;;;5142157;27;20458;-80
2022/01/07 04:08:13;;;;;;;10.90;6.80;;;2.10;95.40;;;;;;5141525;27;20952;-79
2022/01/07 04:10:42;;;;;;;12.57;7.15;;;2.00;95.40;;;;;;5140587;27;20754;-79
2022/01/07 04:13:09;;;;;;;11.02;6.60;;;2.00;95.50;;;;;;5140804;27;20058;-79
2022/01/07 04:15:36;;;;;;;12.13;6.60;;;2.00;95.60;;;;;;5139565;27;20141;-79
2022/01/07 04:18:02;;;;;;;17.00;7.05;;;2.00;95.40;;;;;;5139322;27;20047;-79
2022/01/07 04:20:32;;;;;;;11.98;7.18;;;1.90;95.20;;;;;;5139985;27;20073;-79
2022/01/07 04:22:59;;;;;;;17.25;8.13;;;2.00;95.50;;;;;;5142861;27;20816;-78
2022/01/07 04:25:27;;;;;;;15.15;7.93;;;1.90;95.60;;;;;;5139661;27;20180;-79
2022/01/07 04:27:59;;;;;;;14.85;8.38;;;1.90;95.80;;;;;;5140854;27;20047;-79
2022/01/07 04:30:29;;;;;;;15.68;8.50;;;1.90;95.80;;;;;;5140834;27;21002;-78
2022/01/07 04:33:00;;;;;;;14.73;7.72;;;2.00;96.00;;;;;;5142090;27;20139;-79
2022/01/07 04:35:28;;;;;;;15.50;8.55;;;1.90;95.90;;;;;;5141853;27;20077;-78
2022/01/07 04:37:55;;;;;;;18.15;8.65;;;2.00;95.90;;;;;;5140058;27;20270;-78
2022/01/07 04:40:22;;;;;;;16.85;10.13;;;2.00;96.00;;;;;;5139237;27;20044;-79
2022/01/07 04:42:49;;;;;;;16.00;9.75;;;2.00;96.00;;;;;;5139576;27;20058;-78
2022/01/07 04:45:16;;;;;;;16.63;9.48;;;2.00;95.90;;;;;;5138139;27;20057;-78
2022/01/07 04:47:43;;;;;;;16.20;9.75;;;2.00;96.00;;;;;;5142166;27;20497;-78
2022/01/07 04:50:15;;;;;;;19.15;9.80;;;2.00;96.20;;;;;;5140538;27;20134;-79
2022/01/07 04:52:46;;;;;;;21.25;10.93;;;2.00;96.20;;;;;;5142174;27;20071;-78
2022/01/07 04:55:24;;;;;;;21.13;11.40;;;2.10;96.30;;;;;;5139682;27;20378;-78
2022/01/07 04:57:51;;;;;;;17.30;10.02;;;2.10;96.30;;;;;;5140146;27;20047;-79
2022/01/07 05:00:21;;;;;;;19.88;10.73;;;2.10;96.40;;;;;;5142550;27;20051;-78
2022/01/07 05:02:48;;;;;;;20.58;10.90;;;2.10;96.40;;;;;;5140858;27;20047;-78
2022/01/07 05:05:16;;;;;;;26.10;10.80;;;2.10;96.50;;;;;;5141286;27;20142;-78
2022/01/07 05:07:42;;;;;;;22.33;12.52;;;2.20;96.50;;;;;;5141035;27;20130;-79
2022/01/07 05:10:11;;;;;;;28.17;12.55;;;2.20;96.60;;;;;;5139991;27;20179;-79
2022/01/07 05:12:38;;;;;;;18.33;11.00;;;2.20;96.60;;;;;;5139831;27;20052;-79
2022/01/07 05:15:09;;;;;;;29.05;12.75;;;2.30;96.70;;;;;;5140524;27;20126;-79
2022/01/07 05:17:36;;;;;;;28.23;13.40;;;2.30;96.60;;;;;;5141803;27;20048;-79
2022/01/07 05:20:03;;;;;;;31.08;14.77;;;2.30;96.70;;;;;;5142301;27;21426;-79
2022/01/07 05:22:32;;;;;;;30.85;14.65;;;2.30;96.80;;;;;;5143986;27;20043;-78
2022/01/07 05:24:59;;;;;;;27.10;14.20;;;2.40;96.90;;;;;;5143317;27;20146;-78
2022/01/07 05:27:26;;;;;;;34.97;14.93;;;2.40;96.90;;;;;;5142210;27;20078;-79
2022/01/07 05:29:52;;;;;;;25.70;14.35;;;2.40;96.90;;;;;;5140817;27;20052;-79
2022/01/07 05:32:19;;;;;;;31.85;14.85;;;2.50;96.90;;;;;;5142019;27;20053;-79
2022/01/07 05:34:46;;;;;;;34.08;15.80;;;2.50;96.90;;;;;;5141960;27;20147;-79
2022/01/07 05:37:13;;;;;;;39.78;16.52;;;2.50;97.00;;;;;;5142141;27;20047;-78
2022/01/07 05:39:40;;;;;;;38.67;16.95;;;2.50;96.90;;;;;;5141846;27;20054;-79
2022/01/07 05:42:08;;;;;;;32.83;18.02;;;2.60;96.90;;;;;;5140281;27;20054;-79
2022/01/07 05:44:35;;;;;;;33.28;17.00;;;2.60;96.90;;;;;;5143745;27;20169;-79
2022/01/07 05:47:02;;;;;;;32.65;17.45;;;2.70;96.90;;;;;;5141084;27;20086;-78
2022/01/07 05:49:29;;;;;;;35.60;19.05;;;2.70;96.90;;;;;;5141144;27;20094;-79
2022/01/07 05:51:56;;;;;;;36.05;18.20;;;2.70;96.90;;;;;;5141161;27;20823;-78
2022/01/07 05:54:23;;;;;;;37.88;18.38;;;2.70;96.80;;;;;;5142747;27;20514;-79
2022/01/07 05:56:50;;;;;;;50.38;18.73;;;2.80;96.90;;;;;;5141347;27;20074;-79
2022/01/07 05:59:17;;;;;;;37.55;19.80;;;2.80;96.90;;;;;;5139586;27;20926;-79
2022/01/07 06:01:44;;;;;;;37.72;18.75;;;2.80;96.90;;;;;;5141326;27;20107;-79
2022/01/07 06:04:10;;;;;;;42.92;20.58;;;2.80;97.00;;;;;;5143553;27;20147;-79
2022/01/07 06:06:37;;;;;;;34.75;20.02;;;2.90;97.00;;;;;;5144695;27;20099;-79
2022/01/07 06:09:04;;;;;;;38.03;20.45;;;2.90;97.00;;;;;;5140217;27;20040;-78
2022/01/07 06:11:30;;;;;;;40.08;19.90;;;2.90;97.10;;;;;;5146611;27;20094;-79
2022/01/07 06:13:57;;;;;;;37.58;20.08;;;2.90;97.00;;;;;;5146260;27;20039;-79
2022/01/07 06:16:24;;;;;;;42.13;21.55;;;3.00;97.00;;;;;;5141208;27;20077;-78
2022/01/07 06:18:54;;;;;;;47.65;22.60;;;3.00;97.00;;;;;;5144768;27;20035;-78
2022/01/07 06:21:21;;;;;;;43.20;22.65;;;3.00;97.00;;;;;;5142309;27;20057;-79
2022/01/07 06:23:49;;;;;;;42.78;22.85;;;3.10;96.90;;;;;;5144437;27;20104;-78
2022/01/07 06:26:18;;;;;;;41.88;21.95;;;3.10;96.90;;;;;;5144678;27;20106;-80
2022/01/07 06:28:45;;;;;;;44.33;21.20;;;3.10;96.80;;;;;;5144297;27;20054;-78
2022/01/07 06:31:12;;;;;;;46.78;23.75;;;3.20;96.90;;;;;;5144759;27;20142;-79
2022/01/07 06:33:39;;;;;;;45.50;22.27;;;3.20;96.80;;;;;;5145026;27;20055;-78
2022/01/07 06:36:05;;;;;;;52.35;23.38;;;3.20;96.80;;;;;;5147045;27;20046;-79
2022/01/07 06:38:33;;;;;;;45.15;23.55;;;3.20;96.90;;;;;;5144341;27;20083;-79
2022/01/07 06:41:00;;;;;;;44.30;22.38;;;3.20;96.90;;;;;;5144249;27;20058;-79
2022/01/07 06:43:27;;;;;;;41.35;21.73;;;3.20;96.90;;;;;;5144511;27;20047;-79
2022/01/07 06:45:54;;;;;;;46.95;23.30;;;3.20;97.00;;;;;;5144543;27;20074;-79
2022/01/07 06:48:21;;;;;;;34.33;21.55;;;3.30;97.00;;;;;;5142149;27;20936;-79
2022/01/07 06:50:47;;;;;;;44.67;23.85;;;3.30;96.90;;;;;;5142676;27;20034;-78
2022/01/07 06:53:14;;;;;;;54.28;24.48;;;3.30;96.90;;;;;;5145067;27;20051;-79
2022/01/07 06:55:56;;;;;;;45.55;23.70;;;3.30;96.80;;;;;;5143210;27;20404;-79
2022/01/07 06:58:23;;;;;;;48.30;23.98;;;3.30;96.80;;;;;;5145587;27;20126;-79
2022/01/07 07:00:52;;;;;;;50.42;24.17;;;3.30;96.60;;;;;;5145183;27;20467;-79
2022/01/07 07:03:20;;;;;;;44.63;23.42;;;3.40;96.60;;;;;;5146877;27;20052;-79
2022/01/07 07:05:46;;;;;;;42.95;24.23;;;3.40;96.60;;;;;;5144889;27;20042;-79
2022/01/07 07:08:13;;;;;;;48.53;24.52;;;3.40;96.70;;;;;;5146805;27;20042;-79
2022/01/07 07:10:40;;;;;;;49.13;26.33;;;3.40;96.60;;;;;;5143123;27;20151;-79
2022/01/07 07:13:06;;;;;;;50.35;26.45;;;3.40;96.70;;;;;;5145675;27;20042;-80
2022/01/07 07:15:33;;;;;;;51.95;26.85;;;3.40;96.60;;;;;;5145716;27;20051;-79
2022/01/07 07:18:00;;;;;;;54.40;24.75;;;3.50;96.50;;;;;;5144118;27;20047;-79
2022/01/07 07:20:27;;;;;;;39.13;24.45;;;3.40;96.50;;;;;;5144648;27;20135;-79
2022/01/07 07:22:53;;;;;;;56.15;24.42;;;3.40;96.50;;;;;;5143891;27;20039;-79
2022/01/07 07:25:23;;;;;;;48.70;24.83;;;3.50;96.50;;;;;;5144872;27;20046;-79
2022/01/07 07:27:51;;;;;;;50.90;24.23;;;3.50;96.40;;;;;;5149164;27;20051;-79
2022/01/07 07:30:18;;;;;;;43.53;23.50;;;3.50;96.50;;;;;;5152074;27;20047;-78
2022/01/07 07:32:44;;;;;;;56.65;23.67;;;3.50;96.50;;;;;;5150375;27;20052;-79
2022/01/07 07:37:41;;;;;;;42.63;23.70;;;3.50;96.40;;;;;;5149290;27;20047;-80
2022/01/07 07:40:08;;;;;;;46.20;23.05;;;3.50;96.40;;;;;;5151512;27;20184;-79
2022/01/07 07:42:35;;;;;;;47.55;22.58;;;3.50;96.30;;;;;;5149957;27;20044;-79
2022/01/07 07:45:02;;;;;;;49.08;23.63;;;3.50;96.30;;;;;;5148978;27;20130;-79
2022/01/07 07:47:29;;;;;;;48.92;24.05;;;3.60;96.30;;;;;;5148713;27;20043;-79
2022/01/07 07:49:57;;;;;;;43.03;22.10;;;3.60;96.30;;;;;;5159689;27;20748;-79
2022/01/07 07:52:24;;;;;;;56.40;24.40;;;3.60;96.30;;;;;;5158903;27;20811;-78
2022/01/07 07:54:53;;;;;;;45.53;24.42;;;3.60;96.30;;;;;;5156148;27;20051;-80
2022/01/07 07:57:23;;;;;;;46.55;23.75;;;3.60;96.30;;;;;;5152346;27;20237;-80
2022/01/07 07:59:49;;;;;;;52.85;24.63;;;3.60;96.30;;;;;;5154233;27;20078;-79
2022/01/07 08:02:16;;;;;;;48.33;25.23;;;3.60;96.30;;;;;;5158816;27;20134;-78
2022/01/07 08:04:43;;;;;;;50.30;25.45;;;3.60;96.30;;;;;;5159318;27;20540;-79
2022/01/07 08:07:16;;;;;;;43.20;23.73;;;3.60;96.50;;;;;;5155008;27;20065;-79
2022/01/07 08:09:43;;;;;;;44.73;23.37;;;3.60;96.40;;;;;;5158937;27;20659;-78
2022/01/07 08:12:21;;;;;;;48.85;23.10;;;3.70;96.30;;;;;;5156314;27;20043;-79
2022/01/07 08:17:33;;;;;;;40.45;22.38;;;3.70;96.20;;;;;;5163559;27;20174;-79
2022/01/07 08:20:00;;;;;;;41.80;21.25;;;3.70;96.10;;;;;;5161758;27;20054;-79
2022/01/07 08:22:27;;;;;;;41.97;22.30;;;3.80;95.80;;;;;;5155962;27;20054;-79
2022/01/07 08:24:53;;;;;;;39.22;23.38;;;3.80;95.70;;;;;;5157157;27;20484;-79
2022/01/07 08:27:21;;;;;;;37.10;22.55;;;3.80;95.70;;;;;;5156533;27;20044;-79
2022/01/07 08:30:09;;;;;;;46.20;22.70;;;3.80;95.70;;;;;;5153506;27;20124;-79
2022/01/07 08:35:21;;;;;;;38.55;21.42;;;3.80;95.80;;;;;;5154655;27;20070;-79
2022/01/07 08:37:49;;;;;;;41.10;22.55;;;3.80;95.80;;;;;;5156640;27;20020;-79
2022/01/07 08:40:22;;;;;;;43.35;21.77;;;3.80;95.80;;;;;;5164870;27;20020;-79
2022/01/07 08:42:48;;;;;;;41.33;21.50;;;3.80;95.90;;;;;;5164667;27;20039;-79
2022/01/07 08:45:16;;;;;;;37.08;20.35;;;3.80;95.90;;;;;;5158464;27;20136;-79
2022/01/07 08:47:43;;;;;;;32.17;19.92;;;3.90;95.80;;;;;;5158088;27;20036;-80
2022/01/07 08:50:09;;;;;;;37.05;19.98;;;3.80;95.60;;;;;;5157080;27;20054;-78
2022/01/07 08:52:39;;;;;;;34.40;19.52;;;3.80;95.30;;;;;;5162077;27;20146;-80
2022/01/07 08:55:08;;;;;;;36.38;19.90;;;3.80;95.10;;;;;;5162817;27;20027;-79
2022/01/07 08:57:34;;;;;;;36.25;17.92;;;3.80;95.10;;;;;;5162859;27;20069;-78
2022/01/07 09:00:02;;;;;;;34.55;18.25;;;3.70;95.10;;;;;;5166415;27;20091;-80
2022/01/07 09:02:29;;;;;;;36.63;18.52;;;3.60;95.10;;;;;;5162238;27;20120;-80
2022/01/07 09:04:56;;;;;;;40.50;18.42;;;3.60;95.20;;;;;;5164568;27;20043;-79
2022/01/07 09:07:25;;;;;;;37.22;18.88;;;3.50;95.30;;;;;;5166687;27;20031;-79
2022/01/07 09:09:52;;;;;;;29.65;17.40;;;3.50;95.30;;;;;;5166504;27;20087;-82
2022/01/07 09:12:19;;;;;;;32.88;17.33;;;3.50;95.30;;;;;;5167735;27;20042;-82
2022/01/07 09:14:46;;;;;;;41.83;19.15;;;3.60;95.50;;;;;;5165313;27;20062;-82
2022/01/07 09:17:13;;;;;;;29.60;17.75;;;3.70;95.60;;;;;;5165682;27;20043;-80
2022/01/07 09:19:39;;;;;;;28.63;16.80;;;3.70;95.50;;;;;;5165021;27;20052;-81
2022/01/07 09:22:08;;;;;;;28.60;16.85;;;3.80;95.30;;;;;;5172113;27;20033;-80
2022/01/07 09:24:35;;;;;;;30.92;16.25;;;3.90;95.20;;;;;;5163192;27;20054;-82
2022/01/07 09:27:02;;;;;;;30.05;15.15;;;4.10;95.10;;;;;;5170060;27;20035;-82
2022/01/07 09:29:28;;;;;;;23.92;11.48;;;4.30;94.90;;;;;;5162828;27;20036;-82
2022/01/07 09:31:56;;;;;;;27.52;15.32;;;4.60;94.40;;;;;;5164805;27;20080;-81
2022/01/07 09:34:23;;;;;;;20.50;11.02;;;5.00;93.90;;;;;;5166307;27;20061;-82
2022/01/07 09:36:54;;;;;;;18.48;9.10;;;5.20;92.50;;;;;;5165281;27;20035;-83
2022/01/07 09:39:21;;;;;;;20.85;8.75;;;5.40;91.20;;;;;;5165695;27;20035;-82
2022/01/07 09:41:51;;;;;;;18.60;10.07;;;5.50;90.20;;;;;;5168235;27;20028;-81
2022/01/07 09:44:17;;;;;;;19.63;8.98;;;5.30;89.70;;;;;;5164626;27;20058;-80
2022/01/07 09:46:44;;;;;;;22.00;9.93;;;5.20;89.60;;;;;;5165589;27;20043;-81
2022/01/07 09:49:14;;;;;;;19.52;8.98;;;5.00;90.50;;;;;;5168700;27;20075;-80
2022/01/07 09:51:45;;;;;;;17.17;9.38;;;5.00;91.00;;;;;;5165084;27;20034;-83
2022/01/07 09:54:18;;;;;;;21.40;9.07;;;5.10;91.20;;;;;;5167726;27;20051;-82
2022/01/07 09:56:46;;;;;;;19.40;9.88;;;5.00;90.10;;;;;;5164342;27;20036;-81
2022/01/07 09:59:13;;;;;;;17.85;9.60;;;5.00;91.10;;;;;;5167140;27;20043;-83
2022/01/07 10:01:55;;;;;;;19.15;8.93;;;5.20;91.20;;;;;;5165910;27;20099;-82
2022/01/07 10:04:31;;;;;;;18.90;9.63;;;5.10;90.50;;;;;;5167708;27;20070;-82
2022/01/07 10:07:22;;;;;;;17.33;10.38;;;5.00;90.80;;;;;;5164902;27;20069;-81
2022/01/07 10:10:10;;;;;;;15.77;8.45;;;5.10;91.90;;;;;;5167426;27;20073;-83
2022/01/07 10:13:04;;;;;;;25.25;9.65;;;5.10;91.10;;;;;;5181884;27;20882;-82
2022/01/07 10:15:35;;;;;;;23.02;9.55;;;5.10;91.60;;;;;;5162584;27;20035;-83
2022/01/07 10:18:08;;;;;;;19.45;9.55;;;5.10;91.50;;;;;;5163445;27;20070;-82
2022/01/07 10:20:46;;;;;;;15.13;8.48;;;5.10;90.90;;;;;;5166034;27;20046;-82
2022/01/07 10:23:17;;;;;;;14.40;8.10;;;5.40;91.50;;;;;;5169310;27;20054;-81
2022/01/07 10:25:46;;;;;;;15.57;8.68;;;5.30;89.00;;;;;;5169170;27;20074;-82
2022/01/07 10:28:18;;;;;;;18.27;7.72;;;5.10;89.80;;;;;;5165947;27;20190;-82
2022/01/07 10:30:46;;;;;;;19.70;8.52;;;5.00;90.50;;;;;;5162432;27;20058;-81
2022/01/07 10:33:29;;;;;;;17.10;8.75;;;5.00;90.30;;;;;;5160687;27;20040;-82
2022/01/07 10:36:13;;;;;;;19.10;8.80;;;5.00;90.50;;;;;;5168309;27;20833;-82
2022/01/07 10:38:53;;;;;;;12.93;7.53;;;5.10;91.20;;;;;;5163835;27;20048;-82
2022/01/07 10:41:21;;;;;;;20.83;8.45;;;5.10;90.60;;;;;;5159392;27;20026;-82
2022/01/07 10:43:50;;;;;;;17.45;7.40;;;5.20;91.10;;;;;;5161922;27;20059;-81
2022/01/07 10:46:26;;;;;;;16.10;7.38;;;5.40;90.10;;;;;;5165778;27;20043;-82
2022/01/07 10:48:55;;;;;;;16.25;7.15;;;5.60;90.50;;;;;;5164566;27;20075;-80
2022/01/07 10:51:38;;;;;;;17.85;8.73;;;6.10;89.90;;;;;;5162351;27;20051;-81
2022/01/07 10:54:10;;;;;;;14.30;6.63;;;6.50;88.30;;;;;;5159626;27;20030;-82
2022/01/07 10:56:51;;;;;;;17.35;5.97;;;6.70;89.10;;;;;;5162057;27;20040;-82
2022/01/07 10:59:19;;;;;;;17.95;5.93;;;6.80;87.90;;;;;;5162208;27;20047;-82
2022/01/07 11:01:50;;;;;;;14.32;4.93;;;6.90;86.60;;;;;;5164506;27;20040;-82
2022/01/07 11:04:20;;;;;;;19.30;5.60;;;6.70;86.70;;;;;;5166288;27;20061;-82
2022/01/07 11:06:51;;;;;;;16.10;5.57;;;6.50;87.20;;;;;;5171293;27;20065;-81
2022/01/07 11:09:19;;;;;;;13.93;4.30;;;6.50;88.30;;;;;;5170515;27;20040;-82
2022/01/07 11:11:49;;;;;;;11.25;4.10;;;6.30;86.90;;;;;;5170158;27;20079;-81
2022/01/07 11:14:25;;;;;;;14.82;4.28;;;6.30;85.60;;;;;;5172341;27;20046;-80
2022/01/07 11:16:54;;;;;;;15.60;4.43;;;6.40;86.90;;;;;;5165486;27;20061;-81
2022/01/07 11:19:26;;;;;;;10.90;4.30;;;6.30;86.90;;;;;;5161838;27;20958;-81
2022/01/07 11:21:55;;;;;;;13.80;4.22;;;6.20;84.00;;;;;;5166353;27;20092;-83
2022/01/07 11:24:42;;;;;;;17.77;4.00;;;6.40;87.20;;;;;;5168938;27;20055;-81
2022/01/07 11:27:15;;;;;;;13.43;3.53;;;6.80;87.10;;;;;;5165650;27;20048;-79
2022/01/07 11:29:54;;;;;;;14.82;3.42;;;7.00;82.40;;;;;;5164526;27;20050;-81
2022/01/07 11:32:25;;;;;;;8.38;3.40;;;7.10;81.80;;;;;;5168269;27;20062;-81
2022/01/07 11:34:53;;;;;;;11.30;2.80;;;7.30;84.70;;;;;;5168897;27;20047;-81
2022/01/07 11:37:36;;;;;;;9.48;2.60;;;7.60;82.80;;;;;;5171099;27;20083;-83
2022/01/07 11:40:04;;;;;;;;;;;7.50;81.10;;;;;;5164128;27;20135;-80
2022/01/07 11:42:47;;;;;;;9.90;2.58;;;7.70;83.10;;;;;;5161325;27;19900;-79
2022/01/07 11:45:30;;;;;;;14.55;2.10;;;7.60;81.30;;;;;;5163617;27;20031;-81
2022/01/07 11:47:58;;;;;;;13.32;3.67;;;7.30;80.60;;;;;;5166638;27;20040;-80
2022/01/07 11:50:25;;;;;;;7.68;2.25;;;7.10;79.20;;;;;;5169854;27;20115;-83
2022/01/07 11:52:57;;;;;;;9.75;2.17;;;7.00;80.00;;;;;;5170486;27;20047;-80
2022/01/07 11:55:31;;;;;;;13.50;2.38;;;7.10;80.20;;;;;;5164963;27;20058;-82
2022/01/07 11:58:06;;;;;;;;;;;7.00;80.60;;;;;;5169324;27;20050;-81
2022/01/07 12:00:59;;;;;;;9.25;2.33;;;7.00;81.20;;;;;;5168069;27;19959;-81
2022/01/07 12:03:39;;;;;;;10.27;2.20;;;6.80;81.70;;;;;;5174342;27;20031;-82
2022/01/07 12:06:27;;;;;;;14.73;2.63;;;6.60;80.80;;;;;;5168087;27;20035;-82
2022/01/07 12:09:01;;;;;;;18.42;2.72;;;6.60;82.30;;;;;;5168385;27;20054;-81
2022/01/07 12:11:35;;;;;;;11.40;2.38;;;6.60;83.30;;;;;;5166859;27;20032;-81
2022/01/07 12:14:12;;;;;;;11.93;2.25;;;6.50;81.50;;;;;;5169696;27;20053;-81
2022/01/07 12:16:40;;;;;;;13.20;2.38;;;6.50;82.90;;;;;;5180987;27;20102;-80
2022/01/07 12:19:19;;;;;;;13.95;2.40;;;6.50;81.50;;;;;;5166953;27;20051;-79
2022/01/07 12:21:55;;;;;;;12.50;2.00;;;6.50;83.40;;;;;;5168450;27;20036;-80
2022/01/07 12:24:27;;;;;;;8.60;1.90;;;6.50;82.40;;;;;;5167329;27;20035;-82
2022/01/07 12:27:18;;;;;;;9.98;2.25;;;6.60;82.00;;;;;;5165196;27;20096;-80
2022/01/07 12:29:50;;;;;;;13.25;2.10;;;6.60;81.30;;;;;;5164813;27;20043;-80
2022/01/07 12:32:18;;;;;;;11.32;1.83;;;6.50;80.50;;;;;;5169705;27;20055;-81
2022/01/07 12:34:49;;;;;;;11.98;2.10;;;6.50;80.60;;;;;;5170174;27;20549;-81
2022/01/07 12:37:22;;;;;;;11.85;1.90;;;6.40;81.30;;;;;;5164650;27;20094;-82
2022/01/07 12:39:52;;;;;;;14.70;2.63;;;6.30;81.80;;;;;;5170817;27;20051;-83
2022/01/07 12:42:19;;;;;;;17.42;2.33;;;6.30;81.20;;;;;;5166988;27;20645;-82
2022/01/07 12:44:51;;;;;;;11.88;2.33;;;6.20;81.50;;;;;;5166560;27;20096;-83
2022/01/07 12:47:20;;;;;;;14.30;1.87;;;6.10;80.60;;;;;;5166754;27;20050;-82
2022/01/07 12:49:54;;;;;;;6.90;1.23;;;5.90;76.40;;;;;;5167775;27;20038;-80
2022/01/07 12:52:32;;;;;;;4.25;1.27;;;5.70;75.80;;;;;;5165981;27;20122;-82
2022/01/07 12:55:22;;;;;;;5.43;1.23;;;5.50;73.90;;;;;;5167489;27;20103;-82
2022/01/07 12:57:59;;;;;;;6.43;1.20;;;5.40;76.60;;;;;;5173434;27;20469;-82
2022/01/07 13:00:31;;;;;;;7.03;1.33;;;5.20;73.60;;;;;;5174189;27;20039;-83
2022/01/07 13:03:03;;;;;;;6.28;1.40;;;5.20;77.00;;;;;;5172803;27;20082;-83